createdAt,value
2018-03-18T00:07:05.425Z,1002.53
2018-03-18T00:17:05.374Z,1002.43
2018-03-18T00:27:05.434Z,1002.56
2018-03-18T00:37:05.395Z,1002.5
2018-03-18T00:47:05.370Z,1002.68
2018-03-18T00:57:05.397Z,1002.57
2018-03-18T01:07:05.368Z,1002.5
2018-03-18T01:17:05.432Z,1002.63
2018-03-18T01:27:05.413Z,1002.75
2018-03-18T01:37:05.478Z,1002.53
2018-03-18T01:47:05.427Z,1002.49
2018-03-18T01:57:05.475Z,1002.43
2018-03-18T02:07:05.454Z,1002.32
2018-03-18T02:17:05.393Z,1002.51
2018-03-18T02:27:05.464Z,1002.35
2018-03-18T02:37:05.447Z,1002.33
2018-03-18T02:47:05.488Z,1002.26
2018-03-18T02:57:05.456Z,1002.42
2018-03-18T03:07:05.524Z,1002.24
2018-03-18T03:17:05.477Z,1002.26
2018-03-18T03:27:05.551Z,1002.4
2018-03-18T03:37:05.504Z,1002.29
2018-03-18T03:47:05.474Z,1002.28
2018-03-18T03:57:05.517Z,1002.37
2018-03-18T04:07:05.475Z,1002.57
2018-03-18T04:17:05.543Z,1002.73
2018-03-18T04:27:05.495Z,1002.58
2018-03-18T04:37:05.586Z,1002.58
2018-03-18T04:47:05.542Z,1002.71
2018-03-18T04:57:05.503Z,1002.75
2018-03-18T05:07:05.594Z,1002.78
2018-03-18T05:17:05.607Z,1002.77
2018-03-18T05:27:05.570Z,1002.7
2018-03-18T05:37:05.537Z,1002.84
2018-03-18T05:47:05.615Z,1002.98
2018-03-18T05:57:05.570Z,1003.08
2018-03-18T06:07:05.639Z,1003.01
2018-03-18T06:17:05.596Z,1003.04
2018-03-18T06:27:05.636Z,1003.21
2018-03-18T06:37:05.613Z,1003.12
2018-03-18T06:47:05.557Z,1003.44
2018-03-18T06:57:05.645Z,1003.29
2018-03-18T07:07:05.591Z,1003.51
2018-03-18T07:17:05.661Z,1003.56
2018-03-18T07:27:05.607Z,1003.71
2018-03-18T07:37:05.676Z,1003.73
2018-03-18T07:47:05.621Z,1003.92
2018-03-18T07:57:05.703Z,1003.95
2018-03-18T08:07:05.679Z,1003.98
2018-03-18T08:17:05.642Z,1003.86
2018-03-18T08:27:05.676Z,1004.03
2018-03-18T08:37:05.659Z,1004.15
2018-03-18T08:47:05.698Z,1004.1
2018-03-18T08:57:05.660Z,1004.24
2018-03-18T09:07:05.733Z,1004.2
2018-03-18T09:17:05.696Z,1004.28
2018-03-18T09:27:05.813Z,1004
2018-03-18T09:37:07.681Z,1004.74
2018-03-18T09:47:05.793Z,1004.56
2018-03-18T09:57:05.707Z,1004.39
2018-03-18T10:07:05.727Z,1004.67
2018-03-18T10:17:05.781Z,1004.59
2018-03-18T10:27:05.796Z,1004.36
2018-03-18T10:37:05.836Z,1004.43
2018-03-18T10:47:06.932Z,1004.54
2018-03-18T10:57:05.822Z,1004.57
2018-03-18T11:07:05.789Z,1004.55
2018-03-18T11:17:05.844Z,1004.48
2018-03-18T11:27:05.808Z,1004.42
2018-03-18T11:37:05.762Z,1004.32
2018-03-18T11:47:05.832Z,1004.34
2018-03-18T11:57:05.891Z,1004.25
2018-03-18T12:07:05.816Z,1004.39
2018-03-18T12:17:05.781Z,1004.18
2018-03-18T12:27:05.885Z,1004.07
2018-03-18T12:37:05.841Z,1004.15
2018-03-18T12:47:05.901Z,1004.27
2018-03-18T12:57:05.861Z,1003.99
2018-03-18T13:07:05.919Z,1003.83
2018-03-18T13:17:05.865Z,1004.1
2018-03-18T13:27:05.936Z,1003.87
2018-03-18T13:37:05.906Z,1004.15
2018-03-18T13:47:05.909Z,1004.16
2018-03-18T13:57:05.935Z,1003.93
2018-03-18T14:07:05.907Z,1004.17
2018-03-18T14:17:05.936Z,1004.11
2018-03-18T14:27:05.890Z,1003.97
2018-03-18T14:37:05.944Z,1003.86
2018-03-18T14:47:06.010Z,1003.93
2018-03-18T14:57:05.978Z,1003.77
2018-03-18T15:07:05.924Z,1003.82
2018-03-18T15:17:05.997Z,1003.94
2018-03-18T15:27:06.009Z,1003.93
2018-03-18T15:37:06.006Z,1004.14
2018-03-18T15:47:06.491Z,1004.18
2018-03-18T15:57:06.006Z,1004
2018-03-18T16:07:05.948Z,1003.98
2018-03-18T16:17:06.028Z,1004.13
2018-03-18T16:27:05.969Z,1004.16
2018-03-18T16:37:06.041Z,1004.47
2018-03-18T16:47:06.023Z,1004.41
2018-03-18T16:57:06.092Z,1004.41
2018-03-18T17:07:06.074Z,1004.72
2018-03-18T17:17:06.086Z,1004.81
2018-03-18T17:27:06.061Z,1004.95
2018-03-18T17:37:06.127Z,1005.09
2018-03-18T17:47:06.089Z,1005.14
2018-03-18T17:57:06.041Z,1005.37
2018-03-18T18:07:06.103Z,1005.39
2018-03-18T18:17:06.077Z,1005.48
2018-03-18T18:27:06.119Z,1005.68
2018-03-18T18:37:06.093Z,1005.64
2018-03-18T18:47:06.211Z,1005.73
2018-03-18T18:57:06.112Z,1005.79
2018-03-18T19:07:06.175Z,1005.92
2018-03-18T19:17:06.180Z,1005.93
2018-03-18T19:27:06.129Z,1006.09
2018-03-18T19:37:06.212Z,1005.96
2018-03-18T19:47:06.126Z,1005.95
2018-03-18T19:57:06.201Z,1006.12
2018-03-18T20:07:06.150Z,1006.09
2018-03-18T20:17:06.201Z,1006.11
2018-03-18T20:27:06.146Z,1006.07
2018-03-18T20:37:06.123Z,1006.15
2018-03-18T20:47:06.200Z,1006.1
2018-03-18T20:57:06.262Z,1006.23
2018-03-18T21:07:06.231Z,1006.15
2018-03-18T21:17:06.324Z,1006.11
2018-03-18T21:27:06.245Z,1006.22
2018-03-18T21:37:06.261Z,1006.15
2018-03-18T21:47:06.283Z,1006.13
2018-03-18T21:57:06.183Z,1006.1
2018-03-18T22:07:06.279Z,1006.08
2018-03-18T22:17:06.241Z,1006.11
2018-03-18T22:27:06.281Z,1006.12
2018-03-18T22:37:06.265Z,1006.07
2018-03-18T22:47:06.302Z,1006.07
2018-03-18T22:57:06.249Z,1006.12
2018-03-18T23:08:34.693Z,1006.07
2018-03-18T23:18:34.783Z,1006.07
2018-03-18T23:28:34.822Z,1006.1
2018-03-18T23:38:34.808Z,1006.2
2018-03-18T23:48:34.850Z,1006.08
2018-03-18T23:58:34.811Z,1006.03
